Time;durP1;ratioP1;P1;durP2;ratioP2;P2;SDS_P1;SDS_P2;PMS_P1;PMS_P2;Temp;Humidity;BMP_temperature;BMP_pressure;BME280_temperature;BME280_humidity;BME280_pressure;Samples;Min_cycle;Max_cycle;Signal;HPM_P1;HPM_P2
2021/12/03 00:02:45;;;;;;;8.90;1.23;;;6.30;60.50;;;;;;6177371;28;20030;-70
2021/12/03 00:05:47;;;;;;;3.60;1.15;;;6.30;60.20;;;;;;6159140;28;20059;-72
2021/12/03 00:08:48;;;;;;;0.90;0.60;;;6.30;60.20;;;;;;6143360;28;20368;-72
2021/12/03 00:11:49;;;;;;;1.13;0.80;;;6.30;60.20;;;;;;6143277;28;20039;-71
2021/12/03 00:14:50;;;;;;;1.92;1.15;;;6.40;60.30;;;;;;6161131;28;20375;-71
2021/12/03 00:17:53;;;;;;;2.67;0.80;;;6.40;60.00;;;;;;6176121;28;20045;-70
2021/12/03 00:20:55;;;;;;;1.42;0.77;;;6.40;59.60;;;;;;6142841;28;20349;-70
2021/12/03 00:23:56;;;;;;;0.63;0.60;;;6.40;59.60;;;;;;6175876;28;20042;-71
2021/12/03 00:26:57;;;;;;;0.70;0.65;;;6.30;59.60;;;;;;6175152;28;20334;-70
2021/12/03 00:29:59;;;;;;;2.70;0.60;;;6.40;59.70;;;;;;6158725;28;20039;-70
2021/12/03 00:33:00;;;;;;;0.70;0.70;;;6.40;59.60;;;;;;6178936;28;20043;-69
2021/12/03 00:36:05;;;;;;;5.38;1.88;;;6.40;59.80;;;;;;6139630;28;20066;-69
2021/12/03 00:39:06;;;;;;;4.85;0.70;;;6.40;59.70;;;;;;6175697;28;20456;-69
2021/12/03 00:42:08;;;;;;;2.22;0.85;;;6.40;59.40;;;;;;6158857;28;20046;-70
2021/12/03 00:45:12;;;;;;;1.48;0.43;;;6.40;59.30;;;;;;6157754;28;20035;-71
2021/12/03 00:48:13;;;;;;;1.23;0.85;;;6.50;58.60;;;;;;6158113;28;20385;-70
2021/12/03 00:51:16;;;;;;;0.88;0.80;;;6.50;58.30;;;;;;6160770;28;20124;-70
2021/12/03 00:54:17;;;;;;;2.22;0.98;;;6.60;57.70;;;;;;6196662;28;20384;-70
2021/12/03 00:57:19;;;;;;;1.35;0.90;;;6.60;57.80;;;;;;6199570;28;20042;-70
2021/12/03 01:00:23;;;;;;;0.80;0.63;;;6.60;57.80;;;;;;6199555;28;20097;-70
2021/12/03 01:03:24;;;;;;;1.15;0.80;;;6.60;57.70;;;;;;6182295;28;20185;-70
2021/12/03 01:06:25;;;;;;;7.80;0.52;;;6.60;57.60;;;;;;6185639;28;20491;-71
2021/12/03 01:09:26;;;;;;;0.75;0.60;;;6.60;57.40;;;;;;6187481;28;20101;-71
2021/12/03 01:12:28;;;;;;;1.38;0.75;;;6.50;57.40;;;;;;6187199;28;20030;-70
2021/12/03 01:15:32;;;;;;;0.60;0.60;;;6.60;57.30;;;;;;6204113;28;20089;-70
2021/12/03 01:18:34;;;;;;;1.25;0.80;;;6.60;57.50;;;;;;6203470;28;20050;-70
2021/12/03 01:21:35;;;;;;;1.58;0.90;;;6.60;57.40;;;;;;6187337;28;20173;-70
2021/12/03 01:24:36;;;;;;;1.33;0.90;;;6.60;57.40;;;;;;6186924;28;20038;-71
2021/12/03 01:27:37;;;;;;;2.13;1.17;;;6.60;57.30;;;;;;6187314;28;20460;-70
2021/12/03 01:30:39;;;;;;;1.25;1.00;;;6.70;57.40;;;;;;6170528;28;20034;-70
2021/12/03 01:33:41;;;;;;;1.25;0.85;;;6.70;57.30;;;;;;6189456;28;20042;-70
2021/12/03 01:36:42;;;;;;;0.85;0.80;;;6.70;57.40;;;;;;6186242;28;20522;-71
2021/12/03 01:39:43;;;;;;;5.68;1.60;;;6.70;57.20;;;;;;6202471;28;20030;-71
2021/12/03 01:42:45;;;;;;;1.92;1.15;;;6.70;56.90;;;;;;6170563;28;20118;-70
2021/12/03 01:45:47;;;;;;;3.45;0.57;;;6.70;57.10;;;;;;6185359;28;20428;-70
2021/12/03 01:48:48;;;;;;;2.85;0.88;;;6.60;56.30;;;;;;6204091;28;20348;-69
2021/12/03 01:51:50;;;;;;;1.85;1.27;;;6.60;56.40;;;;;;6186324;28;20054;-70
2021/12/03 01:54:51;;;;;;;7.05;1.15;;;6.60;56.20;;;;;;6186278;28;20038;-70
2021/12/03 01:57:52;;;;;;;1.02;0.80;;;6.60;55.90;;;;;;6203681;28;20129;-71
2021/12/03 02:01:00;;;;;;;1.52;1.05;;;6.60;56.10;;;;;;6185808;28;20509;-69
2021/12/03 02:04:03;;;;;;;1.65;0.68;;;6.60;55.70;;;;;;6174746;28;20375;-70
2021/12/03 02:07:07;;;;;;;2.08;0.73;;;6.50;55.80;;;;;;6185669;28;20035;-70
2021/12/03 02:10:09;;;;;;;2.28;1.00;;;6.50;55.90;;;;;;6187858;28;20057;-71
2021/12/03 02:13:11;;;;;;;3.53;0.60;;;6.50;55.40;;;;;;6185599;28;20070;-71
2021/12/03 02:16:14;;;;;;;9.38;0.57;;;6.50;54.80;;;;;;6201719;28;20055;-71
2021/12/03 02:19:15;;;;;;;1.77;1.17;;;6.40;55.20;;;;;;6178901;28;20034;-71
2021/12/03 02:22:17;;;;;;;0.50;0.50;;;6.40;55.40;;;;;;6217829;28;20114;-70
2021/12/03 02:25:22;;;;;;;4.53;0.60;;;6.40;55.80;;;;;;6185330;28;20034;-70
2021/12/03 02:28:28;;;;;;;1.05;0.80;;;6.50;55.80;;;;;;6184816;28;20046;-70
2021/12/03 02:31:29;;;;;;;1.42;0.57;;;6.40;55.70;;;;;;6196102;28;20031;-69
2021/12/03 02:34:30;;;;;;;0.93;0.28;;;6.40;55.30;;;;;;6186157;28;20408;-70
2021/12/03 02:37:32;;;;;;;2.17;0.77;;;6.50;55.40;;;;;;6201967;28;20476;-71
2021/12/03 02:40:33;;;;;;;1.67;0.60;;;6.50;55.30;;;;;;6185520;28;20041;-69
2021/12/03 02:43:34;;;;;;;1.52;0.80;;;6.50;55.20;;;;;;6185411;28;20045;-70
2021/12/03 02:46:36;;;;;;;0.40;0.40;;;6.50;55.20;;;;;;6183617;28;20097;-71
2021/12/03 02:49:41;;;;;;;0.65;0.55;;;6.50;55.20;;;;;;6202196;28;20088;-71
2021/12/03 02:52:44;;;;;;;2.22;0.57;;;6.40;54.90;;;;;;6168398;28;20053;-71
2021/12/03 02:55:46;;;;;;;1.58;0.73;;;6.40;54.60;;;;;;6176522;28;20031;-70
2021/12/03 02:58:47;;;;;;;1.42;0.60;;;6.40;54.50;;;;;;6164351;28;20042;-70
2021/12/03 03:01:48;;;;;;;4.53;1.05;;;6.30;54.40;;;;;;6179197;28;20547;-70
2021/12/03 03:04:50;;;;;;;0.93;0.68;;;6.20;54.70;;;;;;6177926;28;20066;-71
2021/12/03 03:07:51;;;;;;;1.65;0.60;;;6.20;55.20;;;;;;6176631;28;20031;-70
2021/12/03 03:10:54;;;;;;;3.35;0.80;;;6.20;55.40;;;;;;6177663;28;20411;-70
2021/12/03 03:13:55;;;;;;;0.88;0.77;;;6.20;55.40;;;;;;6177687;28;20189;-70
2021/12/03 03:16:56;;;;;;;1.08;0.63;;;6.20;55.40;;;;;;6176986;28;20042;-69
2021/12/03 03:19:59;;;;;;;1.02;0.73;;;6.10;55.60;;;;;;6176482;28;20114;-70
2021/12/03 03:23:00;;;;;;;2.88;0.90;;;6.10;55.90;;;;;;6176934;28;20416;-70
2021/12/03 03:26:01;;;;;;;0.35;0.32;;;6.10;56.00;;;;;;6157168;28;20381;-70
2021/12/03 03:29:05;;;;;;;1.55;0.80;;;6.10;56.10;;;;;;6176241;28;20566;-70
2021/12/03 03:32:07;;;;;;;0.93;0.65;;;6.10;56.10;;;;;;6179928;28;20149;-69
2021/12/03 03:35:09;;;;;;;1.65;0.50;;;6.10;56.10;;;;;;6176875;28;20353;-70
2021/12/03 03:38:11;;;;;;;0.68;0.50;;;6.00;56.00;;;;;;6191852;28;20073;-69
2021/12/03 03:41:12;;;;;;;0.30;0.30;;;6.00;56.10;;;;;;6163126;28;20126;-69
2021/12/03 03:44:17;;;;;;;0.35;0.35;;;6.00;56.20;;;;;;6140928;28;20074;-71
2021/12/03 03:47:18;;;;;;;3.05;0.80;;;6.00;56.20;;;;;;6169330;28;20116;-70
2021/12/03 03:50:20;;;;;;;1.25;0.75;;;5.90;56.10;;;;;;6175737;28;20047;-70
2021/12/03 03:53:22;;;;;;;0.80;0.40;;;5.90;56.20;;;;;;6163970;28;20163;-69
2021/12/03 03:56:23;;;;;;;0.60;0.60;;;6.00;56.20;;;;;;6159345;28;20490;-70
2021/12/03 03:59:25;;;;;;;0.63;0.45;;;6.00;55.50;;;;;;6159586;28;20487;-71
2021/12/03 04:02:27;;;;;;;1.27;0.70;;;6.00;55.20;;;;;;6176031;28;20475;-71
2021/12/03 04:05:28;;;;;;;0.52;0.30;;;6.00;55.10;;;;;;6160829;28;20031;-71
2021/12/03 04:08:29;;;;;;;1.55;0.50;;;6.00;54.90;;;;;;6169706;28;20093;-70
2021/12/03 04:11:30;;;;;;;1.17;0.40;;;6.00;54.80;;;;;;6176198;28;20058;-71
2021/12/03 04:14:31;;;;;;;1.30;0.50;;;6.10;54.80;;;;;;6176174;28;20380;-70
2021/12/03 04:17:33;;;;;;;3.30;0.30;;;6.00;54.40;;;;;;6175751;28;20031;-71
2021/12/03 04:20:34;;;;;;;1.67;0.80;;;6.10;54.40;;;;;;6159275;28;20138;-72
2021/12/03 04:23:36;;;;;;;2.53;0.88;;;6.00;54.40;;;;;;6172520;28;20043;-69
2021/12/03 04:26:37;;;;;;;0.50;0.50;;;6.00;53.80;;;;;;6175917;28;20050;-69
2021/12/03 04:29:38;;;;;;;0.40;0.40;;;6.00;53.60;;;;;;6175531;28;20097;-69
2021/12/03 04:32:39;;;;;;;1.25;0.55;;;6.00;53.60;;;;;;6146013;28;20129;-69
2021/12/03 04:35:40;;;;;;;1.27;0.60;;;6.00;53.60;;;;;;6175902;28;20043;-69
2021/12/03 04:38:42;;;;;;;1.80;0.70;;;6.10;54.00;;;;;;6144613;28;20444;-69
2021/12/03 04:41:43;;;;;;;0.90;0.65;;;6.10;54.10;;;;;;6174685;28;20031;-70
2021/12/03 04:44:45;;;;;;;3.60;0.77;;;6.10;53.90;;;;;;6175793;28;20034;-69
2021/12/03 04:47:47;;;;;;;0.90;0.50;;;6.10;54.00;;;;;;6174422;28;20045;-69
2021/12/03 04:50:49;;;;;;;0.55;0.55;;;6.10;54.00;;;;;;6174436;28;20054;-70
2021/12/03 04:53:50;;;;;;;1.77;0.60;;;6.10;53.80;;;;;;6197483;28;20369;-70
2021/12/03 04:56:53;;;;;;;0.95;0.57;;;6.10;53.90;;;;;;6181146;28;20471;-70
2021/12/03 04:59:54;;;;;;;10.15;0.98;;;6.10;54.20;;;;;;6169935;28;20034;-70
2021/12/03 05:02:56;;;;;;;0.40;0.38;;;6.10;53.90;;;;;;6187306;28;20162;-70
2021/12/03 05:06:00;;;;;;;2.42;0.50;;;6.10;53.90;;;;;;6172910;28;20042;-70
2021/12/03 05:09:01;;;;;;;0.50;0.50;;;6.00;54.10;;;;;;6181988;28;20026;-69
2021/12/03 05:12:04;;;;;;;1.90;1.00;;;6.00;54.30;;;;;;6181715;28;20045;-70
2021/12/03 05:15:05;;;;;;;0.55;0.55;;;6.00;54.40;;;;;;6166014;28;20117;-70
2021/12/03 05:18:08;;;;;;;1.63;0.75;;;6.00;54.30;;;;;;6182167;28;20443;-70
2021/12/03 05:21:09;;;;;;;0.40;0.40;;;6.00;54.50;;;;;;6168604;28;20234;-69
2021/12/03 05:24:12;;;;;;;2.75;0.63;;;6.00;54.50;;;;;;6181119;28;20096;-70
2021/12/03 05:27:18;;;;;;;4.57;1.02;;;6.10;54.40;;;;;;6181543;28;20046;-70
2021/12/03 05:30:20;;;;;;;2.80;0.68;;;6.00;54.30;;;;;;6198469;28;20049;-70
2021/12/03 05:33:22;;;;;;;2.05;0.50;;;6.00;54.40;;;;;;6160936;28;20133;-69
2021/12/03 05:36:23;;;;;;;2.83;0.70;;;6.00;54.60;;;;;;6199048;28;20043;-69
2021/12/03 05:39:24;;;;;;;1.73;0.88;;;6.10;54.80;;;;;;6180550;28;20395;-71
2021/12/03 05:42:26;;;;;;;2.25;0.70;;;6.00;54.80;;;;;;6181220;28;20034;-71
2021/12/03 05:45:30;;;;;;;1.80;0.88;;;6.00;54.90;;;;;;6175119;28;20468;-72
2021/12/03 05:48:31;;;;;;;0.82;0.50;;;6.00;55.00;;;;;;6191853;28;20049;-70
2021/12/03 05:51:33;;;;;;;1.05;0.85;;;6.00;54.90;;;;;;6200289;28;20077;-69
2021/12/03 05:54:34;;;;;;;0.50;0.50;;;6.00;55.10;;;;;;6186250;28;20132;-70
2021/12/03 05:57:36;;;;;;;0.73;0.73;;;6.00;55.10;;;;;;6202008;28;20041;-70
2021/12/03 06:00:40;;;;;;;1.42;0.70;;;6.00;55.40;;;;;;6186176;28;20035;-70
2021/12/03 06:03:41;;;;;;;1.33;0.77;;;6.00;55.40;;;;;;6189252;28;20038;-70
2021/12/03 06:06:42;;;;;;;3.10;1.75;;;5.90;55.10;;;;;;6186128;28;20042;-70
2021/12/03 06:09:45;;;;;;;11.65;0.90;;;5.90;55.30;;;;;;6202540;28;20042;-70
2021/12/03 06:12:46;;;;;;;4.80;0.80;;;5.90;55.30;;;;;;6167863;28;20046;-70
2021/12/03 06:15:48;;;;;;;0.80;0.80;;;5.90;55.50;;;;;;6178116;28;20030;-70
2021/12/03 06:18:49;;;;;;;2.28;0.93;;;5.80;55.50;;;;;;6165752;28;20429;-69
2021/12/03 06:21:50;;;;;;;2.80;0.95;;;5.90;55.40;;;;;;6185284;28;20448;-70
2021/12/03 06:24:51;;;;;;;1.42;0.98;;;5.90;55.50;;;;;;6202486;28;20037;-71
2021/12/03 06:27:56;;;;;;;1.50;0.63;;;5.90;55.50;;;;;;6201953;28;20470;-69
2021/12/03 06:30:57;;;;;;;1.58;1.17;;;5.90;55.30;;;;;;6150074;28;20457;-69
2021/12/03 06:34:00;;;;;;;1.60;0.95;;;5.80;55.30;;;;;;6207800;28;20034;-70
2021/12/03 06:37:01;;;;;;;2.90;1.27;;;5.80;55.30;;;;;;6185415;28;20417;-70
2021/12/03 06:40:06;;;;;;;1.20;0.68;;;5.80;55.10;;;;;;6168319;28;20121;-69
2021/12/03 06:43:07;;;;;;;1.77;1.02;;;5.80;55.50;;;;;;6184464;28;20046;-71
2021/12/03 06:46:08;;;;;;;0.98;0.70;;;5.70;55.50;;;;;;6184429;28;20042;-71
2021/12/03 06:49:09;;;;;;;1.50;0.95;;;5.70;55.70;;;;;;6200364;28;20108;-70
2021/12/03 06:52:14;;;;;;;4.05;0.90;;;5.80;55.90;;;;;;6198051;28;20046;-71
2021/12/03 06:55:15;;;;;;;1.35;0.82;;;5.80;55.90;;;;;;6184154;28;20328;-70
2021/12/03 06:58:18;;;;;;;0.93;0.63;;;5.90;55.60;;;;;;6199901;28;20026;-70
2021/12/03 07:01:19;;;;;;;1.40;1.30;;;5.80;55.30;;;;;;6200933;28;20468;-71
2021/12/03 07:04:21;;;;;;;3.72;1.73;;;5.80;55.20;;;;;;6202171;28;20105;-70
2021/12/03 07:07:22;;;;;;;1.00;0.88;;;5.80;55.40;;;;;;6167886;28;20089;-70
2021/12/03 07:10:23;;;;;;;7.63;1.20;;;5.80;55.70;;;;;;6183848;28;20066;-70
2021/12/03 07:13:30;;;;;;;1.55;1.10;;;5.80;55.90;;;;;;6200817;28;20367;-69
2021/12/03 07:16:32;;;;;;;1.67;1.20;;;5.80;55.90;;;;;;6201251;28;20042;-69
2021/12/03 07:19:34;;;;;;;2.47;0.93;;;5.70;56.20;;;;;;6167134;28;20042;-70
2021/12/03 07:22:36;;;;;;;3.65;1.80;;;5.70;56.40;;;;;;6183429;28;20027;-70
2021/12/03 07:25:37;;;;;;;2.88;0.98;;;5.80;56.60;;;;;;6198272;28;20113;-70
2021/12/03 07:28:38;;;;;;;2.20;1.27;;;5.80;56.60;;;;;;6197753;28;20022;-71
2021/12/03 07:31:39;;;;;;;7.45;1.23;;;5.90;56.60;;;;;;6182010;28;20320;-70
2021/12/03 07:34:41;;;;;;;2.72;1.65;;;5.90;56.50;;;;;;6203881;28;20092;-70
2021/12/03 07:37:43;;;;;;;2.95;1.55;;;6.00;56.60;;;;;;6200017;28;20104;-71
2021/12/03 07:40:46;;;;;;;2.72;1.60;;;6.00;56.60;;;;;;6182620;28;20511;-69
2021/12/03 07:43:47;;;;;;;2.53;1.60;;;6.00;56.50;;;;;;6199391;28;20049;-70
2021/12/03 07:46:48;;;;;;;3.50;1.95;;;6.00;56.60;;;;;;6198730;28;20037;-71
2021/12/03 07:49:50;;;;;;;3.42;1.20;;;6.00;56.70;;;;;;6198200;28;20038;-71
2021/12/03 07:53:03;;;;;;;2.83;1.45;;;6.00;56.70;;;;;;6185969;28;20384;-70
2021/12/03 07:56:19;;;;;;;5.07;1.58;;;6.00;56.70;;;;;;6180025;28;20041;-71
2021/12/03 07:59:34;;;;;;;7.20;1.80;;;6.00;56.70;;;;;;6174689;28;20034;-71
2021/12/03 08:02:48;;;;;;;5.03;2.15;;;6.10;56.80;;;;;;6177605;28;20361;-71
2021/12/03 08:05:50;;;;;;;3.08;1.85;;;6.10;56.90;;;;;;6164267;28;20054;-70
2021/12/03 08:08:51;;;;;;;11.48;2.80;;;6.20;57.00;;;;;;6182251;28;20158;-70
2021/12/03 08:12:02;;;;;;;5.10;2.17;;;6.30;57.00;;;;;;6164697;28;20094;-70
2021/12/03 08:15:12;;;;;;;3.45;1.80;;;6.40;57.00;;;;;;6171945;28;20042;-70
2021/12/03 08:18:15;;;;;;;2.50;1.38;;;6.50;56.90;;;;;;6186562;28;20475;-72
2021/12/03 08:21:17;;;;;;;4.95;2.08;;;6.50;56.70;;;;;;6155326;28;20915;-71
2021/12/03 08:24:18;;;;;;;3.67;2.17;;;6.50;56.60;;;;;;6171365;28;20046;-70
2021/12/03 08:27:23;;;;;;;6.75;2.15;;;6.60;56.60;;;;;;6172749;28;20039;-70
2021/12/03 08:30:29;;;;;;;2.83;1.67;;;6.60;56.40;;;;;;6185857;28;20110;-70
2021/12/03 08:33:30;;;;;;;3.97;2.00;;;6.70;56.40;;;;;;6159223;28;20049;-71
2021/12/03 08:36:32;;;;;;;6.80;2.58;;;6.80;56.50;;;;;;6173474;28;20464;-71
2021/12/03 08:39:36;;;;;;;3.42;1.90;;;6.90;56.40;;;;;;6171104;28;20033;-71
2021/12/03 08:42:37;;;;;;;6.03;1.83;;;7.00;56.40;;;;;;6188551;28;20037;-70
2021/12/03 08:45:39;;;;;;;3.35;1.70;;;7.10;56.50;;;;;;6173431;28;20054;-70
2021/12/03 08:48:45;;;;;;;9.43;2.08;;;7.30;56.20;;;;;;6172755;28;20396;-70
2021/12/03 08:51:55;;;;;;;2.70;1.95;;;7.40;56.10;;;;;;6180086;28;20117;-70
2021/12/03 08:54:57;;;;;;;5.85;1.75;;;7.50;55.80;;;;;;6177299;28;20404;-71
2021/12/03 08:57:59;;;;;;;5.30;2.22;;;7.60;55.50;;;;;;6195588;28;20038;-71
2021/12/03 09:01:00;;;;;;;4.32;1.70;;;7.70;55.50;;;;;;6153959;28;20045;-70
2021/12/03 09:04:01;;;;;;;3.65;1.73;;;7.80;55.50;;;;;;6165635;28;20046;-70
2021/12/03 09:07:04;;;;;;;2.95;1.50;;;7.90;55.20;;;;;;6177706;28;20057;-70
2021/12/03 09:10:07;;;;;;;5.78;1.95;;;7.90;55.10;;;;;;6165325;28;20034;-70
2021/12/03 09:13:08;;;;;;;7.78;2.40;;;7.90;55.10;;;;;;6177264;28;20081;-72
2021/12/03 09:16:15;;;;;;;5.38;1.98;;;7.90;54.90;;;;;;6179549;28;20117;-72
2021/12/03 09:19:23;;;;;;;3.75;1.75;;;7.80;54.70;;;;;;6193803;28;20038;-71
2021/12/03 09:25:34;;;;;;;3.58;2.00;;;7.70;55.10;;;;;;6177212;28;20042;-71
2021/12/03 09:28:37;;;;;;;6.20;2.05;;;7.70;55.00;;;;;;6199243;28;20134;-70
2021/12/03 09:31:44;;;;;;;4.45;2.40;;;7.60;55.50;;;;;;6182222;28;20440;-70
2021/12/03 09:34:46;;;;;;;3.88;1.95;;;7.60;54.60;;;;;;6159456;28;20038;-70
2021/12/03 09:37:46;;;;;;;5.88;2.60;;;7.60;54.90;;;;;;6175068;28;20045;-70
2021/12/03 09:40:48;;;;;;;7.20;2.67;;;7.70;55.20;;;;;;6170360;28;20030;-72
2021/12/03 09:43:53;;;;;;;4.95;2.13;;;7.80;55.20;;;;;;6200776;28;20363;-70
2021/12/03 09:46:54;;;;;;;2.97;1.48;;;7.90;55.00;;;;;;6195583;28;20356;-71
2021/12/03 09:49:56;;;;;;;4.15;2.10;;;7.90;54.50;;;;;;6182386;28;20054;-72
2021/12/03 09:53:13;;;;;;;4.45;1.80;;;8.00;54.50;;;;;;6180855;28;20104;-71
2021/12/03 09:56:16;;;;;;;12.88;1.30;;;8.10;54.30;;;;;;6165689;28;20038;-71
2021/12/03 10:12:47;;;;;;;4.03;1.92;;;9.00;52.00;;;;;;6074841;29;20419;-71
2021/12/03 10:18:58;;;;;;;10.30;3.25;;;9.30;51.70;;;;;;6060901;29;20041;-71
2021/12/03 10:22:24;;;;;;;4.47;2.30;;;9.50;51.30;;;;;;6092027;29;20033;-71
2021/12/03 10:52:00;;;;;;;3.95;1.98;;;11.40;47.30;;;;;;6005798;29;20056;-70
2021/12/03 13:03:56;;;;;;;8.45;3.30;;;10.50;45.20;;;;;;5878409;30;20044;-73
2021/12/03 14:57:30;;;;;;;2.55;1.63;;;9.50;46.60;;;;;;6033777;29;20048;-72
2021/12/03 15:10:23;;;;;;;3.55;1.30;;;9.30;47.10;;;;;;5921083;29;20575;-71
2021/12/03 15:14:18;;;;;;;5.20;2.15;;;9.20;47.10;;;;;;5926334;30;20062;-71
2021/12/03 15:33:10;;;;;;;6.55;2.38;;;9.20;47.70;;;;;;5974593;29;20447;-72
2021/12/03 15:36:16;;;;;;;5.63;2.80;;;9.20;47.70;;;;;;6008032;29;20034;-71
2021/12/03 16:03:32;;;;;;;8.32;3.25;;;9.00;47.70;;;;;;6074534;29;20039;-71
2021/12/03 16:05:09;;;;;;;6.68;2.97;;;9.00;48.00;;;;;;6074592;29;20036;-71
2021/12/03 16:11:21;;;;;;;6.43;2.63;;;8.90;48.30;;;;;;6073848;29;20036;-71
2021/12/03 16:14:43;;;;;;;8.52;2.47;;;8.90;48.60;;;;;;6072972;29;20055;-70
2021/12/03 16:24:15;;;;;;;6.05;2.17;;;8.70;49.10;;;;;;6054739;29;20045;-72
2021/12/03 16:43:44;;;;;;;5.55;2.53;;;8.60;49.50;;;;;;6174536;28;20034;-71
2021/12/03 16:52:53;;;;;;;9.52;2.60;;;8.60;49.70;;;;;;6183400;28;20046;-71
2021/12/03 16:59:05;;;;;;;4.07;2.17;;;8.50;50.20;;;;;;6184862;28;20031;-71
2021/12/03 17:02:10;;;;;;;11.65;3.40;;;8.50;50.50;;;;;;6185337;28;20486;-70
2021/12/03 17:11:43;;;;;;;7.00;3.10;;;8.30;51.00;;;;;;6183476;28;20038;-71
2021/12/03 17:15:11;;;;;;;10.38;3.53;;;8.30;51.20;;;;;;6162341;28;20054;-71
2021/12/03 17:47:54;;;;;;;21.10;8.15;;;8.00;52.00;;;;;;6093811;29;20032;-70
2021/12/03 18:00:54;;;;;;;8.38;3.92;;;7.90;52.20;;;;;;6072119;29;20491;-72
2021/12/03 18:10:35;;;;;;;17.48;6.32;;;7.70;52.40;;;;;;6086791;28;20054;-71
2021/12/03 18:53:03;;;;;;;8.07;3.60;;;7.80;52.10;;;;;;6151493;28;20465;-70
2021/12/03 18:56:07;;;;;;;14.32;5.00;;;7.80;52.00;;;;;;6145994;28;20038;-71
2021/12/03 18:59:09;;;;;;;24.67;8.80;;;7.80;52.00;;;;;;6162475;28;20416;-70
2021/12/03 19:02:11;;;;;;;29.85;10.70;;;7.90;52.80;;;;;;6144087;28;20113;-72
2021/12/03 19:08:19;;;;;;;74.20;21.85;;;7.90;52.20;;;;;;6147398;28;20034;-72
2021/12/03 19:11:34;;;;;;;60.28;16.75;;;7.90;52.30;;;;;;6155349;28;20035;-72
2021/12/03 19:14:38;;;;;;;29.63;9.90;;;7.90;52.30;;;;;;6145345;28;20426;-71
2021/12/03 19:17:42;;;;;;;39.00;9.82;;;7.90;52.40;;;;;;6150959;28;20031;-72
2021/12/03 19:20:43;;;;;;;26.13;10.00;;;7.90;52.40;;;;;;6165579;28;20133;-73
2021/12/03 19:23:44;;;;;;;36.70;12.63;;;7.90;52.40;;;;;;6131209;28;20035;-72
2021/12/03 19:26:46;;;;;;;19.25;7.57;;;7.90;52.50;;;;;;6151075;28;20158;-70
2021/12/03 19:29:47;;;;;;;13.07;4.28;;;7.90;52.40;;;;;;6152007;28;20464;-71
2021/12/03 19:32:48;;;;;;;11.07;4.53;;;7.90;52.30;;;;;;6168281;28;20096;-71
2021/12/03 19:35:49;;;;;;;7.35;3.40;;;7.90;52.20;;;;;;6138709;28;20487;-71
2021/12/03 19:38:53;;;;;;;10.80;4.70;;;7.90;52.20;;;;;;6134863;28;20027;-72
2021/12/03 19:42:06;;;;;;;11.35;5.50;;;7.90;52.10;;;;;;6134350;28;20499;-71
2021/12/03 19:45:11;;;;;;;10.90;4.63;;;7.90;52.00;;;;;;6148154;28;20061;-71
2021/12/03 19:48:14;;;;;;;20.40;8.70;;;7.90;52.00;;;;;;6162202;28;20069;-71
2021/12/03 19:51:18;;;;;;;33.45;12.25;;;7.90;52.00;;;;;;6138293;28;20130;-72
2021/12/03 19:54:20;;;;;;;49.30;16.55;;;7.90;52.10;;;;;;6176307;28;20050;-72
2021/12/03 19:57:23;;;;;;;18.70;5.88;;;8.00;52.20;;;;;;6161216;28;20038;-72
2021/12/03 20:00:25;;;;;;;41.95;13.25;;;8.10;52.10;;;;;;6174060;28;20523;-73
2021/12/03 20:03:26;;;;;;;23.70;4.95;;;8.10;52.00;;;;;;6160749;28;20038;-74
2021/12/03 20:06:27;;;;;;;8.95;4.07;;;8.20;51.40;;;;;;6178032;28;20068;-73
2021/12/03 20:09:38;;;;;;;13.00;4.55;;;8.20;51.20;;;;;;6177072;28;20035;-72
2021/12/03 20:12:39;;;;;;;21.33;7.50;;;8.10;50.50;;;;;;6160038;28;20042;-70
2021/12/03 20:18:44;;;;;;;16.33;5.05;;;8.10;50.80;;;;;;6164324;28;20105;-70
2021/12/03 20:28:17;;;;;;;;;;;8.20;50.30;;;;;;6194484;28;20054;-70
2021/12/03 20:31:22;;;;;;;31.50;11.90;;;8.20;50.60;;;;;;6159497;28;19921;-69
2021/12/03 20:34:44;;;;;;;23.58;8.20;;;8.20;50.70;;;;;;6161629;28;20053;-69
2021/12/03 20:37:47;;;;;;;11.07;4.70;;;8.20;50.70;;;;;;6178179;28;20030;-69
2021/12/03 20:40:53;;;;;;;6.72;2.78;;;8.30;50.40;;;;;;6175533;28;20049;-68
2021/12/03 21:09:56;;;;;;;10.10;3.80;;;8.40;50.00;;;;;;6099686;28;20044;-69
2021/12/03 21:13:07;;;;;;;8.65;2.78;;;8.40;50.40;;;;;;6086239;28;20409;-69
2021/12/03 21:19:59;;;;;;;10.23;3.42;;;8.40;50.10;;;;;;6032034;29;20052;-68
2021/12/03 21:23:05;;;;;;;5.90;2.38;;;8.40;50.20;;;;;;6042105;29;20062;-68
2021/12/03 21:26:09;;;;;;;6.65;3.38;;;8.50;50.30;;;;;;6069131;29;20044;-70
2021/12/03 21:29:27;;;;;;;8.43;3.35;;;8.40;50.20;;;;;;6083872;29;20447;-69
2021/12/03 21:39:09;;;;;;;11.25;2.97;;;8.40;50.60;;;;;;6084722;29;20375;-68
2021/12/03 21:42:10;;;;;;;7.05;2.63;;;8.40;50.90;;;;;;6068892;29;20067;-68
2021/12/03 21:45:11;;;;;;;8.50;3.58;;;8.40;51.20;;;;;;6074438;29;21140;-69
2021/12/03 21:48:14;;;;;;;6.32;2.53;;;8.50;51.40;;;;;;6106000;29;20039;-69
2021/12/03 21:51:16;;;;;;;6.25;2.83;;;8.50;50.90;;;;;;6098601;29;20052;-68
2021/12/03 21:54:18;;;;;;;4.50;2.42;;;8.50;50.80;;;;;;6123941;28;20055;-68
2021/12/03 21:57:25;;;;;;;9.98;4.47;;;8.50;50.90;;;;;;6172491;28;20061;-69
2021/12/03 22:00:26;;;;;;;7.15;3.10;;;8.50;50.90;;;;;;6135963;28;20121;-67
2021/12/03 22:03:28;;;;;;;4.05;2.33;;;8.60;51.00;;;;;;6169833;28;20077;-68
2021/12/03 22:06:29;;;;;;;4.68;2.47;;;8.60;50.90;;;;;;6169792;28;20042;-67
2021/12/03 22:09:30;;;;;;;5.60;2.80;;;8.60;50.90;;;;;;6169612;28;20046;-68
2021/12/03 22:12:32;;;;;;;4.57;2.85;;;8.60;51.00;;;;;;6149104;28;20061;-68
2021/12/03 22:15:33;;;;;;;6.40;2.75;;;8.60;51.20;;;;;;6154355;28;20042;-67
2021/12/03 22:18:34;;;;;;;7.60;2.72;;;8.60;51.40;;;;;;6144048;28;20375;-68
2021/12/03 22:21:35;;;;;;;6.57;2.83;;;8.60;51.60;;;;;;6153914;28;20101;-68
2021/12/03 22:24:38;;;;;;;5.43;2.67;;;8.60;51.70;;;;;;6153476;28;20035;-67
2021/12/03 22:27:39;;;;;;;4.60;2.42;;;8.60;51.90;;;;;;6155079;28;20047;-67
2021/12/03 22:30:42;;;;;;;8.85;2.40;;;8.60;52.10;;;;;;6121852;28;20054;-69
2021/12/03 22:33:43;;;;;;;6.78;2.75;;;8.60;52.10;;;;;;6136348;28;20046;-81
2021/12/03 22:36:45;;;;;;;8.20;2.58;;;8.50;51.80;;;;;;6166584;28;20137;-73
2021/12/03 22:39:47;;;;;;;10.27;3.55;;;8.50;52.20;;;;;;6140911;28;20089;-73
2021/12/03 22:42:48;;;;;;;5.53;2.65;;;8.40;52.40;;;;;;6152511;28;20066;-73
2021/12/03 22:46:00;;;;;;;3.60;2.00;;;8.40;52.80;;;;;;6156448;28;20035;-72
2021/12/03 22:49:17;;;;;;;4.30;2.10;;;8.40;53.00;;;;;;6156443;28;20602;-72
2021/12/03 22:52:20;;;;;;;3.80;2.00;;;8.30;53.20;;;;;;6128734;28;20104;-72
2021/12/03 22:55:22;;;;;;;9.35;3.78;;;8.30;53.30;;;;;;6174205;28;20050;-72
2021/12/03 22:58:24;;;;;;;6.75;3.05;;;8.20;53.30;;;;;;6171292;28;20038;-72
2021/12/03 23:01:25;;;;;;;8.10;3.95;;;8.10;53.50;;;;;;6172470;28;20034;-73
2021/12/03 23:04:26;;;;;;;4.03;2.78;;;8.10;53.80;;;;;;6133832;28;20173;-72
2021/12/03 23:07:27;;;;;;;3.53;2.13;;;8.00;54.30;;;;;;6172455;28;20042;-72
2021/12/03 23:10:28;;;;;;;5.32;2.63;;;8.00;54.60;;;;;;6169320;28;20173;-76
2021/12/03 23:13:31;;;;;;;6.00;2.00;;;7.90;54.60;;;;;;6157308;28;20096;-76
2021/12/03 23:16:33;;;;;;;4.03;2.10;;;7.80;55.00;;;;;;6171995;28;20061;-76
2021/12/03 23:19:34;;;;;;;6.78;2.80;;;7.70;55.20;;;;;;6173310;28;20042;-76
2021/12/03 23:22:35;;;;;;;9.60;3.20;;;7.70;55.70;;;;;;6156190;28;20375;-76
2021/12/03 23:25:39;;;;;;;6.47;2.30;;;7.70;56.00;;;;;;6194067;28;20049;-76
2021/12/03 23:28:43;;;;;;;4.53;2.35;;;7.60;56.20;;;;;;6176616;28;20045;-77
2021/12/03 23:31:45;;;;;;;5.30;2.67;;;7.60;56.50;;;;;;6176819;28;20489;-76
2021/12/03 23:34:46;;;;;;;5.50;2.33;;;7.50;56.70;;;;;;6150336;28;20416;-77
2021/12/03 23:37:47;;;;;;;6.10;2.45;;;7.50;57.20;;;;;;6178889;28;20092;-76
2021/12/03 23:40:48;;;;;;;6.28;3.70;;;7.50;57.60;;;;;;6176772;28;20035;-78
2021/12/03 23:43:49;;;;;;;5.10;2.72;;;7.40;57.90;;;;;;6193707;28;20054;-76
2021/12/03 23:46:51;;;;;;;4.30;2.42;;;7.40;58.20;;;;;;6176587;28;20042;-76
2021/12/03 23:49:52;;;;;;;8.23;3.15;;;7.40;58.30;;;;;;6178258;28;20039;-76
2021/12/03 23:52:53;;;;;;;5.30;2.40;;;7.40;58.50;;;;;;6185005;28;20042;-77
2021/12/03 23:55:54;;;;;;;6.25;2.85;;;7.40;58.70;;;;;;6180920;28;20368;-77
2021/12/03 23:58:57;;;;;;;14.55;4.15;;;7.30;59.00;;;;;;6177809;28;20041;-76
